createdAt,value
2022-09-05T00:02:48.868Z,76.78
2022-09-05T00:05:54.061Z,76.84
2022-09-05T00:09:43.344Z,77.03
2022-09-05T00:12:16.152Z,77.64
2022-09-05T00:15:20.088Z,78.00
2022-09-05T00:23:19.917Z,77.47
2022-09-05T00:24:29.813Z,78.14
2022-09-05T00:25:30.650Z,76.95
2022-09-05T00:28:29.566Z,76.88
2022-09-05T00:31:56.596Z,76.32
2022-09-05T00:34:50.306Z,76.48
2022-09-05T00:37:44.608Z,76.95
2022-09-05T00:40:26.321Z,76.65
2022-09-05T00:43:04.609Z,76.40
2022-09-05T00:45:58.698Z,75.77
2022-09-05T00:49:29.807Z,75.12
2022-09-05T00:52:34.404Z,75.83
2022-09-05T00:55:40.922Z,76.20
2022-09-05T00:58:45.210Z,76.27
2022-09-05T01:02:04.233Z,75.99
2022-09-05T01:05:07.455Z,75.68
2022-09-05T01:07:58.545Z,76.24
2022-09-05T01:11:48.678Z,76.00
2022-09-05T01:15:17.691Z,77.12
2022-09-05T01:18:00.282Z,76.57
2022-09-05T01:20:57.366Z,76.39
2022-09-05T01:23:54.744Z,76.57
2022-09-05T01:27:08.370Z,76.16
2022-09-05T01:30:15.300Z,76.94
2022-09-05T01:33:11.553Z,77.14
2022-09-05T01:36:30.356Z,77.49
2022-09-05T01:40:14.946Z,77.50
2022-09-05T01:43:01.600Z,77.39
2022-09-05T01:46:11.669Z,77.56
2022-09-05T01:49:00.077Z,77.68
2022-09-05T01:51:45.263Z,78.08
2022-09-05T01:55:06.233Z,78.77
2022-09-05T01:58:24.598Z,78.54
2022-09-05T02:01:25.100Z,78.90
2022-09-05T02:04:49.070Z,79.77
2022-09-05T02:07:31.813Z,79.59
2022-09-05T02:10:50.875Z,80.13
2022-09-05T02:13:35.722Z,80.24
2022-09-05T02:16:28.119Z,80.79
2022-09-05T02:19:31.208Z,81.50
2022-09-05T02:22:22.763Z,81.80
2022-09-05T02:26:01.633Z,81.92
2022-09-05T02:28:20.939Z,82.06
2022-09-05T02:31:19.987Z,82.05
2022-09-05T02:34:17.562Z,82.80
2022-09-05T02:38:52.398Z,82.74
2022-09-05T02:45:02.987Z,82.66
2022-09-05T02:45:13.847Z,83.31
2022-09-05T02:47:30.871Z,83.23
2022-09-05T02:57:27.276Z,83.33
2022-09-05T02:57:39.661Z,83.21
2022-09-05T02:57:40.245Z,83.58
2022-09-05T03:00:16.049Z,83.68
2022-09-05T03:03:51.356Z,84.07
2022-09-05T03:07:17.876Z,84.70
2022-09-05T03:09:53.352Z,84.29
2022-09-05T03:12:53.032Z,84.47
2022-09-05T03:16:04.794Z,84.40
2022-09-05T03:19:46.197Z,85.12
2022-09-05T03:23:06.662Z,85.33
2022-09-05T03:26:06.866Z,85.49
2022-09-05T03:29:34.605Z,85.98
2022-09-05T03:32:56.474Z,86.42
2022-09-05T03:36:29.160Z,86.88
2022-09-05T03:39:36.292Z,87.14
2022-09-05T03:42:43.687Z,87.39
2022-09-05T03:45:55.528Z,87.63
2022-09-05T03:48:29.337Z,88.21
2022-09-05T03:57:06.920Z,88.02
2022-09-05T03:57:16.931Z,88.48
2022-09-05T03:58:55.993Z,88.60
2022-09-05T04:02:40.403Z,88.56
2022-09-05T04:08:17.180Z,89.09
2022-09-05T04:08:45.178Z,89.33
2022-09-05T04:11:47.057Z,89.97
2022-09-05T04:14:28.337Z,89.56
2022-09-05T04:17:10.965Z,89.69
2022-09-05T04:19:55.298Z,90.31
2022-09-05T04:23:18.643Z,90.05
2022-09-05T04:26:11.289Z,90.07
2022-09-05T04:29:18.253Z,88.86
2022-09-05T04:32:24.139Z,88.92
2022-09-05T04:35:19.254Z,89.50
2022-09-05T04:38:14.417Z,89.60
2022-09-05T04:41:11.809Z,89.16
2022-09-05T04:44:02.770Z,88.77
2022-09-05T04:46:52.808Z,88.08
2022-09-05T04:49:37.374Z,88.75
2022-09-05T04:52:31.826Z,89.00
2022-09-05T04:55:16.362Z,89.09
2022-09-05T04:58:27.531Z,89.27
2022-09-05T05:06:00.207Z,89.02
2022-09-05T05:06:14.078Z,88.73
2022-09-05T05:08:12.666Z,87.83
2022-09-05T05:17:05.142Z,88.23
2022-09-05T05:18:09.766Z,86.80
2022-09-05T05:18:42.358Z,86.14
2022-09-05T05:21:16.637Z,85.35
2022-09-05T05:24:01.023Z,85.70
2022-09-05T05:26:57.120Z,85.52
2022-09-05T05:29:54.277Z,85.32
2022-09-05T05:32:49.190Z,85.32
2022-09-05T05:35:31.472Z,85.16
2022-09-05T05:38:16.464Z,85.81
2022-09-05T05:41:40.009Z,85.54
2022-09-05T05:44:37.057Z,85.62
2022-09-05T05:47:17.587Z,85.13
2022-09-05T05:50:56.389Z,84.59
2022-09-05T05:53:58.948Z,84.62
2022-09-05T05:57:15.628Z,84.88
2022-09-05T06:00:27.300Z,84.63
2022-09-05T06:03:24.943Z,84.76
2022-09-05T06:06:43.067Z,85.55
2022-09-05T06:14:54.718Z,83.83
2022-09-05T06:15:01.054Z,84.61
2022-09-05T06:16:37.954Z,82.96
2022-09-05T06:20:49.044Z,80.61
2022-09-05T06:23:46.196Z,79.26
2022-09-05T06:26:49.290Z,78.22
2022-09-05T06:30:04.135Z,79.19
2022-09-05T06:33:39.852Z,77.80
2022-09-05T06:36:45.291Z,77.48
2022-09-05T06:39:52.986Z,78.06
2022-09-05T06:42:58.662Z,76.04
2022-09-05T06:46:13.085Z,75.15
2022-09-05T06:49:32.276Z,74.84
2022-09-05T06:52:55.397Z,74.55
2022-09-05T06:56:02.108Z,72.08
2022-09-05T06:59:26.484Z,73.86
2022-09-05T07:02:59.616Z,73.81
2022-09-05T07:06:07.576Z,73.00
2022-09-05T07:09:01.549Z,73.58
2022-09-05T07:12:09.637Z,72.29
2022-09-05T07:15:29.008Z,71.59
2022-09-05T07:18:17.075Z,72.90
2022-09-05T07:21:16.458Z,71.79
2022-09-05T07:24:09.084Z,70.74
2022-09-05T07:26:53.852Z,70.51
2022-09-05T07:29:52.452Z,70.49
2022-09-05T07:32:41.101Z,70.28
2022-09-05T07:35:29.348Z,70.16
2022-09-05T07:38:15.781Z,69.60
2022-09-05T07:41:07.718Z,69.49
2022-09-05T07:43:46.377Z,68.32
2022-09-05T07:46:24.905Z,68.78
2022-09-05T07:49:01.049Z,68.13
2022-09-05T07:56:46.797Z,68.33
2022-09-05T07:56:59.518Z,69.97
2022-09-05T07:57:43.720Z,67.50
2022-09-05T08:00:29.221Z,67.50
2022-09-05T08:03:14.119Z,66.11
2022-09-05T08:05:55.888Z,65.81
2022-09-05T08:09:05.635Z,64.57
2022-09-05T08:11:39.217Z,64.77
2022-09-05T08:14:49.299Z,66.21
2022-09-05T08:17:30.286Z,65.77
2022-09-05T08:20:32.936Z,64.26
2022-09-05T08:23:34.697Z,64.77
2022-09-05T08:26:17.778Z,62.99
2022-09-05T08:29:24.327Z,62.91
2022-09-05T08:32:11.968Z,63.22
2022-09-05T08:35:28.984Z,62.69
2022-09-05T08:37:59.747Z,62.53
2022-09-05T08:40:39.020Z,61.17
2022-09-05T08:46:36.772Z,62.67
2022-09-05T08:47:13.965Z,60.90
2022-09-05T08:50:18.229Z,62.93
2022-09-05T08:53:26.218Z,59.96
2022-09-05T08:56:22.655Z,59.79
2022-09-05T08:59:31.667Z,59.53
2022-09-05T09:02:48.450Z,58.68
2022-09-05T09:06:18.610Z,59.21
2022-09-05T09:09:13.917Z,58.75
2022-09-05T09:12:29.039Z,59.55
2022-09-05T09:15:25.972Z,59.42
2022-09-05T09:17:53.974Z,57.27
2022-09-05T09:20:38.936Z,57.99
2022-09-05T09:23:44.294Z,58.19
2022-09-05T09:26:28.261Z,57.33
2022-09-05T09:29:10.472Z,59.72
2022-09-05T09:32:21.786Z,57.40
2022-09-05T09:35:05.659Z,55.76
2022-09-05T09:38:19.642Z,55.95
2022-09-05T09:41:50.103Z,57.51
2022-09-05T09:45:22.572Z,56.52
2022-09-05T09:48:46.298Z,55.69
2022-09-05T09:51:55.580Z,53.35
2022-09-05T09:55:46.444Z,57.22
2022-09-05T09:58:38.864Z,55.80
2022-09-05T10:01:35.147Z,53.63
2022-09-05T10:10:39.975Z,54.30
2022-09-05T10:10:49.595Z,55.14
2022-09-05T10:11:53.088Z,54.39
2022-09-05T10:15:31.195Z,53.19
2022-09-05T10:18:56.642Z,53.84
2022-09-05T10:22:37.866Z,53.31
2022-09-05T10:26:10.442Z,53.29
2022-09-05T10:28:55.462Z,54.03
2022-09-05T10:34:53.461Z,54.01
2022-09-05T10:35:22.338Z,52.88
2022-09-05T10:38:44.705Z,52.00
2022-09-05T10:41:23.031Z,51.29
2022-09-05T10:44:07.460Z,53.47
2022-09-05T10:47:42.128Z,52.30
2022-09-05T10:50:28.423Z,50.91
2022-09-05T10:53:39.582Z,52.69
2022-09-05T10:56:32.086Z,51.33
2022-09-05T11:01:19.369Z,52.06
2022-09-05T11:02:34.804Z,54.34
2022-09-05T11:05:27.141Z,52.50
2022-09-05T11:08:06.650Z,50.89
2022-09-05T11:11:28.714Z,52.60
2022-09-05T11:14:53.592Z,51.64
2022-09-05T11:17:32.001Z,52.31
2022-09-05T11:20:38.983Z,52.28
2022-09-05T11:23:27.550Z,52.39
2022-09-05T11:26:17.616Z,53.38
2022-09-05T11:29:05.171Z,53.81
2022-09-05T11:33:34.324Z,52.62
2022-09-05T11:39:51.604Z,55.35
2022-09-05T11:39:54.023Z,53.02
2022-09-05T11:41:43.119Z,52.44
2022-09-05T11:44:43.995Z,52.38
2022-09-05T11:47:48.584Z,53.90
2022-09-05T11:51:03.976Z,51.98
2022-09-05T11:54:01.625Z,51.43
2022-09-05T11:57:33.581Z,51.97
2022-09-05T12:00:31.328Z,52.70
2022-09-05T12:03:58.917Z,53.11
2022-09-05T12:07:38.630Z,52.95
2022-09-05T12:10:46.725Z,53.36
2022-09-05T12:14:21.062Z,51.78
2022-09-05T12:17:40.024Z,52.13
2022-09-05T12:20:43.415Z,51.39
2022-09-05T12:24:02.340Z,51.74
2022-09-05T12:27:38.042Z,52.62
2022-09-05T12:30:00.073Z,51.04
2022-09-05T12:36:01.435Z,50.47
2022-09-05T12:36:11.168Z,50.80
2022-09-05T12:41:14.895Z,52.68
2022-09-05T12:43:56.091Z,51.65
2022-09-05T12:48:55.561Z,51.87
2022-09-05T12:51:46.222Z,53.19
2022-09-05T12:54:41.974Z,51.54
2022-09-05T13:03:02.855Z,52.71
2022-09-05T13:03:14.182Z,50.82
2022-09-05T13:03:31.939Z,52.43
2022-09-05T13:06:09.398Z,51.61
2022-09-05T13:08:59.467Z,52.40
2022-09-05T13:14:49.267Z,52.28
2022-09-05T13:15:18.754Z,51.31
2022-09-05T13:18:10.476Z,51.65
2022-09-05T13:20:51.620Z,51.39
2022-09-05T13:23:50.585Z,51.21
2022-09-05T13:26:55.479Z,51.40
2022-09-05T13:29:35.152Z,50.99
2022-09-05T13:37:59.685Z,50.77
2022-09-05T13:38:16.419Z,53.37
2022-09-05T13:39:39.611Z,51.00
2022-09-05T13:42:18.702Z,50.80
2022-09-05T13:44:56.885Z,50.23
2022-09-05T13:47:57.736Z,51.17
2022-09-05T13:50:44.830Z,49.46
2022-09-05T13:53:52.037Z,50.56
2022-09-05T13:56:32.394Z,49.38
2022-09-05T13:59:14.229Z,49.03
2022-09-05T14:06:45.648Z,50.32
2022-09-05T14:09:52.217Z,49.08
2022-09-05T14:12:45.787Z,48.59
2022-09-05T14:15:43.657Z,47.58
2022-09-05T14:18:55.536Z,47.43
2022-09-05T14:21:33.390Z,46.94
2022-09-05T14:24:28.144Z,47.35
2022-09-05T14:27:03.184Z,46.17
2022-09-05T14:29:52.247Z,47.60
2022-09-05T14:37:39.200Z,45.56
2022-09-05T14:37:49.287Z,44.98
2022-09-05T14:40:30.471Z,43.80
2022-09-05T14:43:57.019Z,44.56
2022-09-05T14:47:05.124Z,42.61
2022-09-05T14:50:24.636Z,43.12
2022-09-05T14:58:49.225Z,41.72
2022-09-05T15:02:41.077Z,42.68
2022-09-05T15:02:54.608Z,40.39
2022-09-05T15:05:11.582Z,40.98
2022-09-05T15:07:50.684Z,40.90
2022-09-05T15:12:19.833Z,40.34
2022-09-05T15:13:25.964Z,39.37
2022-09-05T15:16:09.324Z,39.87
2022-09-05T15:18:48.342Z,40.25
2022-09-05T15:21:39.084Z,40.63
2022-09-05T15:24:30.989Z,40.28
2022-09-05T15:27:04.536Z,42.96
2022-09-05T15:29:35.367Z,41.97
2022-09-05T15:32:28.096Z,41.76
2022-09-05T15:35:00.504Z,42.62
2022-09-05T15:37:45.043Z,43.07
2022-09-05T15:40:21.930Z,41.65
2022-09-05T15:42:55.681Z,43.60
2022-09-05T15:45:37.017Z,44.29
2022-09-05T15:48:23.701Z,44.55
2022-09-05T15:50:59.900Z,44.87
2022-09-05T15:53:37.672Z,45.19
2022-09-05T15:56:10.592Z,46.35
2022-09-05T15:58:59.841Z,47.32
2022-09-05T16:01:58.181Z,48.09
2022-09-05T16:10:26.741Z,48.71
2022-09-05T16:10:40.246Z,49.21
2022-09-05T16:11:06.978Z,49.71
2022-09-05T16:13:52.650Z,49.84
2022-09-05T16:20:29.194Z,51.71
2022-09-05T16:23:27.784Z,50.31
2022-09-05T16:23:33.322Z,50.54
2022-09-05T16:25:30.917Z,50.24
2022-09-05T16:28:39.279Z,50.86
2022-09-05T16:31:38.761Z,50.77
2022-09-05T16:34:30.537Z,51.60
2022-09-05T16:37:15.788Z,51.47
2022-09-05T16:40:23.523Z,51.28
2022-09-05T16:43:31.185Z,51.55
2022-09-05T16:46:40.558Z,51.88
2022-09-05T16:49:41.535Z,52.63
2022-09-05T16:52:17.955Z,53.19
2022-09-05T16:55:32.591Z,53.73
2022-09-05T16:58:22.561Z,53.55
2022-09-05T17:01:02.708Z,53.17
2022-09-05T17:04:18.554Z,53.34
2022-09-05T17:07:24.622Z,53.81
2022-09-05T17:09:51.743Z,54.32
2022-09-05T17:12:33.669Z,54.74
2022-09-05T17:15:36.285Z,54.43
2022-09-05T17:18:24.325Z,54.57
2022-09-05T17:21:18.740Z,55.52
2022-09-05T17:29:16.841Z,55.89
2022-09-05T17:29:47.017Z,55.95
2022-09-05T17:31:48.836Z,56.47
2022-09-05T17:33:45.867Z,57.22
2022-09-05T17:36:41.184Z,57.63
2022-09-05T17:39:49.483Z,56.14
2022-09-05T17:42:41.506Z,56.70
2022-09-05T17:45:33.989Z,57.79
2022-09-05T17:48:01.519Z,58.15
2022-09-05T17:50:33.337Z,58.49
2022-09-05T17:53:25.117Z,59.45
2022-09-05T17:55:55.108Z,60.04
2022-09-05T17:58:49.591Z,61.87
2022-09-05T18:01:28.248Z,61.86
2022-09-05T18:04:11.301Z,62.75
2022-09-05T18:06:58.919Z,62.27
2022-09-05T18:09:39.992Z,62.41
2022-09-05T18:13:31.189Z,63.51
2022-09-05T18:15:27.480Z,64.25
2022-09-05T18:17:54.429Z,64.02
2022-09-05T18:20:36.523Z,63.30
2022-09-05T18:23:54.151Z,63.36
2022-09-05T18:26:28.369Z,64.00
2022-09-05T18:33:39.756Z,63.96
2022-09-05T18:36:25.480Z,63.90
2022-09-05T18:39:29.358Z,64.21
2022-09-05T18:42:25.516Z,63.81
2022-09-05T18:45:15.042Z,64.54
2022-09-05T18:48:06.258Z,64.97
2022-09-05T18:50:47.002Z,64.97
2022-09-05T18:53:25.799Z,64.87
2022-09-05T18:56:27.637Z,65.33
2022-09-05T18:59:34.558Z,64.71
2022-09-05T19:02:51.553Z,66.55
2022-09-05T19:06:34.590Z,66.25
2022-09-05T19:09:28.616Z,66.64
2022-09-05T19:12:31.816Z,67.04
2022-09-05T19:15:13.899Z,66.50
2022-09-05T19:17:52.250Z,66.72
2022-09-05T19:20:56.379Z,66.15
2022-09-05T19:23:35.670Z,66.99
2022-09-05T19:26:09.593Z,66.97
2022-09-05T19:36:40.489Z,66.97
2022-09-05T19:36:52.545Z,67.36
2022-09-05T19:37:06.088Z,66.49
2022-09-05T19:37:47.243Z,65.86
2022-09-05T19:47:27.911Z,66.46
2022-09-05T19:47:40.835Z,66.28
2022-09-05T19:47:41.271Z,66.08
2022-09-05T19:49:12.170Z,65.65
2022-09-05T19:51:41.877Z,65.78
2022-09-05T19:54:36.234Z,66.23
2022-09-05T19:57:14.590Z,67.27
2022-09-05T19:59:46.909Z,66.59
2022-09-05T20:02:29.849Z,67.16
2022-09-05T20:05:03.717Z,67.74
2022-09-05T20:07:35.892Z,67.59
2022-09-05T20:10:05.448Z,67.53
2022-09-05T20:12:39.096Z,68.23
2022-09-05T20:15:37.195Z,67.64
2022-09-05T20:18:42.212Z,67.60
2022-09-05T20:21:30.431Z,68.33
2022-09-05T20:23:59.902Z,67.19
2022-09-05T20:26:33.777Z,67.36
2022-09-05T20:29:11.447Z,67.70
2022-09-05T20:31:39.345Z,67.69
2022-09-05T20:35:15.983Z,68.31
2022-09-05T20:43:08.643Z,67.42
2022-09-05T20:43:19.945Z,67.30
2022-09-05T20:43:20.299Z,66.70
2022-09-05T20:46:49.697Z,66.91
2022-09-05T20:54:06.108Z,67.47
2022-09-05T20:54:15.608Z,67.10
2022-09-05T20:54:34.733Z,66.90
2022-09-05T20:57:23.036Z,67.82
2022-09-05T20:59:50.314Z,67.10
2022-09-05T21:02:33.113Z,66.17
2022-09-05T21:05:20.176Z,65.14
2022-09-05T21:08:07.692Z,65.02
2022-09-05T21:10:56.359Z,64.60
2022-09-05T21:13:31.142Z,65.35
2022-09-05T21:16:00.882Z,64.47
2022-09-05T21:18:34.166Z,64.02
2022-09-05T21:21:17.312Z,65.03
2022-09-05T21:24:17.479Z,63.62
2022-09-05T21:26:49.610Z,63.66
2022-09-05T21:29:32.981Z,64.10
2022-09-05T21:32:03.989Z,64.37
2022-09-05T21:34:55.063Z,63.71
2022-09-05T21:37:23.112Z,63.86
2022-09-05T21:39:58.508Z,64.54
2022-09-05T21:46:22.133Z,63.40
2022-09-05T21:47:43.333Z,64.99
2022-09-05T21:48:17.457Z,64.07
2022-09-05T21:50:51.431Z,64.42
2022-09-05T21:59:14.714Z,62.98
2022-09-05T21:59:22.613Z,64.90
2022-09-05T21:59:36.802Z,63.64
2022-09-05T22:02:08.681Z,62.67
2022-09-05T22:04:41.270Z,63.52
2022-09-05T22:07:19.560Z,64.30
2022-09-05T22:09:59.231Z,65.18
2022-09-05T22:12:31.433Z,64.12
2022-09-05T22:15:04.552Z,63.63
2022-09-05T22:17:48.954Z,63.24
2022-09-05T22:20:20.913Z,63.93
2022-09-05T22:22:56.795Z,62.74
2022-09-05T22:25:34.055Z,63.00
2022-09-05T22:28:26.331Z,63.58
2022-09-05T22:31:07.241Z,63.61
2022-09-05T22:33:36.107Z,63.22
2022-09-05T22:36:04.701Z,62.80
2022-09-05T22:38:33.341Z,63.47
2022-09-05T22:41:00.681Z,62.76
2022-09-05T22:43:33.024Z,63.02
2022-09-05T22:46:00.207Z,62.93
2022-09-05T22:48:27.246Z,63.59
2022-09-05T22:50:54.306Z,62.96
2022-09-05T22:53:21.788Z,62.40
2022-09-05T22:56:02.611Z,62.44
2022-09-05T22:58:30.364Z,62.05
2022-09-05T23:01:01.702Z,61.32
2022-09-05T23:03:28.872Z,60.58
2022-09-05T23:05:55.961Z,61.22
2022-09-05T23:08:23.073Z,60.12
2022-09-05T23:10:50.014Z,60.40
2022-09-05T23:13:17.018Z,59.76
2022-09-05T23:15:44.129Z,60.33
2022-09-05T23:18:11.138Z,59.45
2022-09-05T23:20:38.358Z,59.29
2022-09-05T23:23:08.646Z,59.62
2022-09-05T23:25:36.367Z,59.40
2022-09-05T23:28:09.838Z,59.11
2022-09-05T23:30:39.055Z,59.32
2022-09-05T23:33:10.902Z,58.75
2022-09-05T23:35:38.270Z,58.95
2022-09-05T23:38:11.290Z,59.33
2022-09-05T23:40:39.465Z,58.52
2022-09-05T23:43:07.941Z,58.04
2022-09-05T23:45:35.252Z,57.48
2022-09-05T23:48:03.025Z,57.45
2022-09-05T23:50:30.109Z,57.74
2022-09-05T23:53:01.774Z,59.13
2022-09-05T23:55:29.895Z,58.51
2022-09-05T23:57:59.112Z,58.57
